Time;durP1;ratioP1;P1;durP2;ratioP2;P2;SDS_P1;SDS_P2;PMS_P1;PMS_P2;Temp;Humidity;BMP_temperature;BMP_pressure;BME280_temperature;BME280_humidity;BME280_pressure;Samples;Min_cycle;Max_cycle;Signal;HPM_P1;HPM_P2
2023/07/19 00:01:23;;;;;;;3.65;2.50;;;;;;;16.76;75.18;101342.38;4980176;28;20023;-92
2023/07/19 00:03:49;;;;;;;3.97;2.45;;;;;;;16.73;74.86;101338.09;4995538;28;20497;-93
2023/07/19 00:06:14;;;;;;;4.18;2.78;;;;;;;16.75;74.64;101341.50;4987715;28;20534;-93
2023/07/19 00:08:39;;;;;;;4.32;2.78;;;;;;;16.80;74.51;101343.94;5001811;28;20044;-94
2023/07/19 00:11:05;;;;;;;4.72;3.00;;;;;;;16.80;74.13;101333.44;4989695;28;20025;-94
2023/07/19 00:13:32;;;;;;;6.40;3.15;;;;;;;16.81;74.29;101330.72;4995911;28;20105;-95
2023/07/19 00:15:58;;;;;;;5.10;2.72;;;;;;;16.81;74.11;101328.09;4996307;28;20057;-96
2023/07/19 00:18:24;;;;;;;4.85;2.70;;;;;;;16.82;73.85;101321.94;5003566;28;20421;-94
2023/07/19 00:20:49;;;;;;;4.30;2.65;;;;;;;16.80;75.56;101312.41;5002233;28;20021;-93
2023/07/19 00:23:15;;;;;;;4.88;3.17;;;;;;;16.78;75.95;101325.59;5009425;28;20174;-93
2023/07/19 00:25:41;;;;;;;3.47;2.53;;;;;;;16.74;74.66;101324.03;5002744;28;20467;-94
2023/07/19 00:28:06;;;;;;;5.20;3.15;;;;;;;16.70;75.32;101322.47;5001527;28;20082;-94
2023/07/19 00:30:32;;;;;;;4.80;2.88;;;;;;;16.66;73.87;101320.91;4995224;28;20480;-93
2023/07/19 00:32:57;;;;;;;5.80;2.53;;;;;;;16.61;74.38;101318.47;4998500;28;20563;-93
2023/07/19 00:35:25;;;;;;;3.85;2.75;;;;;;;16.57;74.43;101306.38;4994605;28;20030;-94
2023/07/19 00:37:51;;;;;;;3.75;2.63;;;;;;;16.55;75.50;101310.84;5005698;28;20520;-94
2023/07/19 00:40:22;;;;;;;4.22;2.90;;;;;;;16.48;74.26;101307.63;5001906;28;20026;-93
2023/07/19 00:42:47;;;;;;;4.22;2.80;;;;;;;16.45;74.71;101306.94;4996958;28;20470;-95
2023/07/19 00:45:13;;;;;;;4.25;2.90;;;;;;;16.39;74.37;101297.53;5004981;28;20045;-92
2023/07/19 00:47:39;;;;;;;4.13;2.53;;;;;;;16.33;75.30;101287.28;5011529;28;20033;-92
2023/07/19 00:50:07;;;;;;;4.88;2.60;;;;;;;16.32;76.01;101282.97;5011337;28;20023;-92
2023/07/19 00:52:32;;;;;;;5.15;2.70;;;;;;;16.24;74.65;101283.28;5004131;28;20027;-94
2023/07/19 00:55:02;;;;;;;5.38;2.83;;;;;;;16.20;75.96;101282.56;4994966;28;20121;-94
2023/07/19 00:57:28;;;;;;;5.72;2.70;;;;;;;16.16;74.97;101274.88;4986712;28;20037;-94
2023/07/19 00:59:53;;;;;;;4.93;2.90;;;;;;;16.12;74.85;101279.41;4988077;28;20030;-94
2023/07/19 01:02:20;;;;;;;5.93;2.95;;;;;;;16.07;74.26;101269.09;5008142;28;20025;-94
2023/07/19 01:04:45;;;;;;;5.03;3.05;;;;;;;16.02;73.86;101272.84;5000432;28;20129;-95
2023/07/19 01:07:11;;;;;;;5.07;3.10;;;;;;;15.96;74.02;101273.09;5005803;28;20131;-93
2023/07/19 01:09:36;;;;;;;4.95;3.08;;;;;;;15.89;73.78;101275.97;5003591;28;20376;-94
2023/07/19 01:12:02;;;;;;;4.13;2.88;;;;;;;15.81;74.48;101275.41;4996864;28;20022;-94
2023/07/19 01:14:27;;;;;;;5.30;3.30;;;;;;;15.77;75.81;101269.44;4998458;28;20452;-95
2023/07/19 01:16:55;;;;;;;4.80;3.47;;;;;;;15.73;75.90;101273.09;5002020;28;20464;-93
2023/07/19 01:19:20;;;;;;;5.55;3.38;;;;;;;15.69;75.37;101275.91;5002780;28;20026;-93
2023/07/19 01:21:50;;;;;;;5.47;3.35;;;;;;;15.63;75.61;101275.22;4979321;28;20425;-94
2023/07/19 01:24:19;;;;;;;5.45;3.35;;;;;;;15.59;76.25;101271.00;4981349;28;20018;-93
2023/07/19 01:26:45;;;;;;;6.05;3.30;;;;;;;15.57;76.51;101267.59;5003299;28;20065;-95
2023/07/19 01:29:12;;;;;;;5.57;3.60;;;;;;;15.55;76.60;101266.81;5000859;28;20049;-93
2023/07/19 01:31:40;;;;;;;6.32;3.40;;;;;;;15.54;76.75;101266.88;5002184;28;20421;-93
2023/07/19 01:34:08;;;;;;;4.70;3.33;;;;;;;15.48;77.05;101258.31;5011973;28;20033;-93
2023/07/19 01:36:33;;;;;;;4.70;3.50;;;;;;;15.47;76.78;101258.41;5001886;28;20033;-94
2023/07/19 01:38:59;;;;;;;6.97;3.58;;;;;;;15.48;77.00;101252.25;4993817;28;20431;-94
2023/07/19 01:41:24;;;;;;;5.63;3.92;;;;;;;15.47;77.23;101248.75;4996414;28;20026;-94
2023/07/19 01:43:50;;;;;;;7.25;4.22;;;;;;;15.47;77.02;101253.16;5001252;28;20026;-93
2023/07/19 01:46:15;;;;;;;7.50;4.13;;;;;;;15.47;77.37;101246.13;5001477;28;21664;-93
2023/07/19 01:48:40;;;;;;;7.55;4.45;;;;;;;15.47;77.77;101245.28;4994925;28;20034;-93
2023/07/19 01:51:06;;;;;;;6.68;4.55;;;;;;;15.47;77.51;101245.28;5001032;28;20089;-94
2023/07/19 01:53:31;;;;;;;7.00;4.53;;;;;;;15.47;77.42;101251.38;5002490;28;20534;-94
2023/07/19 01:55:57;;;;;;;8.25;4.05;;;;;;;15.49;77.05;101251.34;4996542;28;20022;-93
2023/07/19 01:58:22;;;;;;;8.52;4.38;;;;;;;15.48;77.67;101253.09;4996010;28;20022;-93
2023/07/19 02:00:48;;;;;;;6.05;3.97;;;;;;;15.48;77.28;101236.50;5007575;28;20087;-95
2023/07/19 02:03:13;;;;;;;6.50;3.88;;;;;;;15.46;77.21;101240.97;4999913;28;20029;-94
2023/07/19 02:05:38;;;;;;;5.57;3.50;;;;;;;15.47;76.61;101243.50;5000875;28;20389;-94
2023/07/19 02:08:04;;;;;;;5.10;3.60;;;;;;;15.48;77.27;101247.00;4994720;28;20057;-92
2023/07/19 02:10:29;;;;;;;5.50;3.83;;;;;;;15.49;77.34;101246.09;4997735;28;20030;-93
2023/07/19 02:12:55;;;;;;;4.20;3.30;;;;;;;15.48;77.59;101244.38;4996319;28;20036;-93
2023/07/19 02:15:20;;;;;;;5.22;3.50;;;;;;;15.48;76.41;101239.97;5005267;28;20037;-94
2023/07/19 02:17:46;;;;;;;4.40;3.50;;;;;;;15.43;77.12;101239.31;4979834;28;20030;-94
2023/07/19 02:20:14;;;;;;;5.68;3.78;;;;;;;15.42;76.10;101235.00;4997080;28;20441;-93
2023/07/19 02:22:51;;;;;;;;;;;;;;;;;;;;;
2023/07/19 02:25:17;;;;;;;5.13;3.50;;;;;;;15.33;77.85;101240.59;5007396;28;20018;-93
2023/07/19 02:27:45;;;;;;;4.85;3.33;;;;;;;15.31;76.93;101237.16;5005436;28;20036;-94
2023/07/19 02:30:11;;;;;;;5.55;3.53;;;;;;;15.31;77.49;101235.41;5003213;28;20094;-92
2023/07/19 02:32:40;;;;;;;5.97;3.60;;;;;;;15.27;77.85;101228.59;5012701;28;20482;-92
2023/07/19 02:35:06;;;;;;;4.80;3.30;;;;;;;15.27;77.81;101227.75;4999739;28;20395;-94
2023/07/19 02:37:33;;;;;;;3.55;2.78;;;;;;;15.23;76.91;101218.28;4998397;28;20030;-93
2023/07/19 02:40:02;;;;;;;4.78;3.13;;;;;;;15.16;77.50;101226.38;5006661;28;20034;-93
2023/07/19 02:42:27;;;;;;;5.28;3.28;;;;;;;15.13;77.97;101220.41;5000390;28;20117;-93
2023/07/19 02:44:55;;;;;;;5.70;3.10;;;;;;;15.11;78.24;101217.00;4995838;28;20117;-93
2023/07/19 02:47:23;;;;;;;5.93;3.67;;;;;;;15.11;78.68;101232.72;4997583;28;20383;-92
2023/07/19 02:49:50;;;;;;;6.43;3.35;;;;;;;15.10;79.25;101228.38;5000164;28;21873;-93
2023/07/19 02:52:17;;;;;;;4.15;3.10;;;;;;;15.07;78.85;101236.34;4982860;28;20032;-93
2023/07/19 02:54:42;;;;;;;7.55;3.40;;;;;;;15.07;79.10;101233.72;5008058;28;20064;-94
2023/07/19 02:57:08;;;;;;;5.13;3.17;;;;;;;15.12;79.20;101229.19;5005562;28;20498;-93
2023/07/19 02:59:33;;;;;;;5.20;3.30;;;;;;;15.14;78.74;101238.69;4996427;28;20032;-94
2023/07/19 03:01:59;;;;;;;6.13;3.50;;;;;;;15.19;78.82;101246.38;4996948;28;20026;-93
2023/07/19 03:04:24;;;;;;;5.28;3.05;;;;;;;15.18;78.56;101240.28;4978006;28;20022;-94
2023/07/19 03:06:49;;;;;;;4.95;3.15;;;;;;;15.22;78.43;101234.91;5003212;28;20475;-92
2023/07/19 03:09:22;;;;;;;5.90;3.60;;;;;;;15.24;77.93;101239.19;4987518;28;20133;-93
2023/07/19 03:11:47;;;;;;;5.95;3.58;;;;;;;15.22;78.80;101234.91;4999504;28;20503;-94
2023/07/19 03:14:15;;;;;;;5.53;3.40;;;;;;;15.22;78.74;101233.13;5005249;28;20141;-92
2023/07/19 03:16:42;;;;;;;5.47;3.55;;;;;;;15.25;79.81;101232.19;5000199;28;20039;-94
2023/07/19 03:19:08;;;;;;;5.15;3.30;;;;;;;15.26;80.46;101237.34;4990360;28;20022;-92
2023/07/19 03:21:36;;;;;;;4.85;3.40;;;;;;;15.27;79.31;101244.31;4995339;28;20018;-95
2023/07/19 03:24:05;;;;;;;5.55;3.30;;;;;;;15.28;79.67;101234.69;4994135;28;20022;-94
2023/07/19 03:26:30;;;;;;;6.13;3.35;;;;;;;15.28;80.20;101232.91;5006470;28;20022;-93
2023/07/19 03:28:56;;;;;;;4.78;3.25;;;;;;;15.28;80.41;101240.78;4983026;28;20020;-93
2023/07/19 03:31:24;;;;;;;5.35;3.00;;;;;;;15.30;79.44;101238.94;5008195;28;20018;-94
2023/07/19 03:33:51;;;;;;;6.70;3.60;;;;;;;15.31;79.62;101245.03;4979672;28;20475;-94
2023/07/19 03:36:20;;;;;;;5.10;3.28;;;;;;;15.31;79.73;101245.03;4996484;28;20391;-93
2023/07/19 03:38:47;;;;;;;4.35;3.22;;;;;;;15.32;79.72;101249.38;4997370;28;20029;-93
2023/07/19 03:41:13;;;;;;;5.32;3.28;;;;;;;15.36;80.09;101247.50;5008751;28;20498;-93
2023/07/19 03:43:38;;;;;;;5.13;3.17;;;;;;;15.38;80.44;101245.63;4988424;28;20030;-93
2023/07/19 03:46:07;;;;;;;4.70;3.13;;;;;;;15.41;80.60;101256.00;5002169;28;20030;-92
2023/07/19 03:48:35;;;;;;;5.70;3.08;;;;;;;15.42;80.70;101262.97;4997791;28;20084;-93
2023/07/19 03:51:01;;;;;;;6.53;3.20;;;;;;;15.42;80.45;101257.72;4995403;28;20058;-94
2023/07/19 03:53:29;;;;;;;4.97;3.08;;;;;;;15.45;81.00;101252.38;5004490;28;20051;-94
2023/07/19 03:55:56;;;;;;;5.05;3.15;;;;;;;15.46;81.86;101248.81;5006364;28;20022;-93
2023/07/19 03:58:26;;;;;;;6.80;3.20;;;;;;;15.47;81.27;101245.28;5008140;28;20053;-93
2023/07/19 04:00:55;;;;;;;5.25;3.17;;;;;;;15.47;81.01;101250.53;5006014;28;20031;-93
2023/07/19 04:03:21;;;;;;;5.72;3.10;;;;;;;15.45;80.81;101252.38;5003339;28;20022;-91
2023/07/19 04:05:46;;;;;;;5.00;3.22;;;;;;;15.47;80.91;101245.28;5008312;28;20025;-93
2023/07/19 04:08:16;;;;;;;5.43;3.30;;;;;;;15.48;81.17;101247.84;5009693;28;20066;-92
2023/07/19 04:10:42;;;;;;;6.18;3.53;;;;;;;15.51;81.21;101251.25;4999535;28;20046;-93
2023/07/19 04:13:09;;;;;;;6.57;3.15;;;;;;;15.51;80.78;101252.13;4984921;28;20050;-92
2023/07/19 04:15:35;;;;;;;5.22;3.53;;;;;;;15.51;80.99;101252.13;5004770;28;20022;-93
2023/07/19 04:18:00;;;;;;;5.05;3.20;;;;;;;15.52;81.25;101248.59;5002239;28;20034;-93
2023/07/19 04:20:26;;;;;;;6.03;3.15;;;;;;;15.54;81.40;101245.91;5026473;28;20017;-92
2023/07/19 04:22:52;;;;;;;5.72;3.30;;;;;;;15.54;81.54;101248.53;5005301;28;20037;-93
2023/07/19 04:25:18;;;;;;;4.55;3.20;;;;;;;15.54;81.78;101249.34;5003944;28;20018;-93
2023/07/19 04:27:43;;;;;;;3.97;3.08;;;;;;;15.53;81.67;101239.81;5009297;28;20075;-93
2023/07/19 04:30:09;;;;;;;5.20;3.45;;;;;;;15.53;81.26;101238.94;4997922;28;20026;-92
2023/07/19 04:32:34;;;;;;;4.53;3.10;;;;;;;15.51;81.26;101233.78;5007723;28;20034;-94
2023/07/19 04:34:59;;;;;;;6.75;3.28;;;;;;;15.51;81.52;101241.63;5009749;28;20307;-94
2023/07/19 04:37:25;;;;;;;4.40;3.35;;;;;;;15.52;81.47;101248.59;4999687;28;20030;-93
2023/07/19 04:39:50;;;;;;;7.45;3.53;;;;;;;15.53;81.22;101242.44;5003608;28;20029;-93
2023/07/19 04:42:22;;;;;;;7.72;3.45;;;;;;;15.56;80.95;101247.53;4997623;28;20022;-93
2023/07/19 04:44:48;;;;;;;4.93;3.42;;;;;;;15.59;80.38;101239.53;4998499;28;20037;-93
2023/07/19 04:47:13;;;;;;;4.82;3.25;;;;;;;15.65;80.15;101248.09;5011766;28;20033;-92
2023/07/19 04:49:38;;;;;;;5.85;3.45;;;;;;;15.69;79.90;101247.06;5000573;28;20080;-93
2023/07/19 04:52:04;;;;;;;4.53;3.55;;;;;;;15.74;79.00;101250.31;4995394;28;20030;-93
2023/07/19 04:54:29;;;;;;;5.35;3.67;;;;;;;15.78;79.17;101244.03;4977858;28;20025;-93
2023/07/19 04:56:55;;;;;;;5.05;3.78;;;;;;;15.81;79.73;101249.16;4995317;28;20038;-93
2023/07/19 04:59:20;;;;;;;6.47;3.97;;;;;;;15.85;78.86;101256.03;4995136;28;20029;-91
2023/07/19 05:01:46;;;;;;;6.90;3.80;;;;;;;15.89;78.95;101256.75;5006122;28;20034;-91
2023/07/19 05:04:11;;;;;;;4.53;3.70;;;;;;;15.91;78.80;101255.75;4994462;28;20037;-92
2023/07/19 05:06:39;;;;;;;7.70;4.28;;;;;;;15.96;78.76;101257.34;5008205;28;20108;-92
2023/07/19 05:09:05;;;;;;;6.07;4.00;;;;;;;15.99;78.25;101262.47;5005203;28;20046;-92
2023/07/19 05:11:33;;;;;;;5.60;4.03;;;;;;;16.02;78.18;101263.19;4999811;28;20543;-93
2023/07/19 05:13:58;;;;;;;8.15;4.15;;;;;;;16.06;78.08;101263.91;5001280;28;20038;-92
2023/07/19 05:16:23;;;;;;;5.90;4.25;;;;;;;16.11;77.91;101266.34;4995689;28;20517;-94
2023/07/19 05:18:50;;;;;;;8.40;4.80;;;;;;;16.14;77.53;101250.50;4994719;28;20161;-93
2023/07/19 05:21:18;;;;;;;9.35;4.03;;;;;;;16.20;77.38;101263.34;4978066;28;20034;-94
2023/07/19 05:23:44;;;;;;;8.05;4.00;;;;;;;16.22;77.07;101262.38;5002502;28;20018;-93
2023/07/19 05:26:09;;;;;;;9.88;4.25;;;;;;;16.28;77.02;101269.13;5007332;28;20428;-94
2023/07/19 05:28:35;;;;;;;5.70;3.83;;;;;;;16.32;76.52;101254.09;4997667;28;20033;-93
2023/07/19 05:31:03;;;;;;;6.40;3.90;;;;;;;16.38;76.32;101259.06;4996936;28;20034;-93
2023/07/19 05:33:29;;;;;;;5.80;3.80;;;;;;;16.43;75.82;101269.38;4996505;28;20041;-93
2023/07/19 05:35:54;;;;;;;6.47;4.20;;;;;;;16.49;75.93;101267.31;4996748;28;20030;-92
2023/07/19 05:38:21;;;;;;;7.43;4.03;;;;;;;16.56;75.19;101265.28;4994500;28;20445;-92
2023/07/19 05:40:47;;;;;;;7.32;3.90;;;;;;;16.59;75.86;101262.53;4995167;28;20026;-93
2023/07/19 05:43:12;;;;;;;6.78;4.40;;;;;;;16.66;75.74;101265.72;4995649;28;20068;-93
2023/07/19 05:45:37;;;;;;;5.60;4.07;;;;;;;16.71;75.74;101261.13;4996309;28;20227;-92
2023/07/19 05:48:06;;;;;;;6.70;4.18;;;;;;;16.77;75.50;101265.25;4981475;28;20027;-93
2023/07/19 05:50:37;;;;;;;8.27;4.40;;;;;;;16.81;75.22;101257.16;5001627;28;20079;-93
2023/07/19 05:53:02;;;;;;;7.00;4.03;;;;;;;16.90;75.65;101255.88;5004137;28;20018;-93
2023/07/19 05:55:28;;;;;;;7.43;4.25;;;;;;;16.95;75.15;101264.44;4984487;28;20030;-94
2023/07/19 05:57:53;;;;;;;7.55;4.28;;;;;;;17.01;75.24;101260.69;4994935;28;20100;-93
2023/07/19 06:00:28;;;;;;;9.70;4.40;;;;;;;17.08;74.69;101259.44;4992932;28;20032;-93
2023/07/19 06:02:55;;;;;;;6.32;4.10;;;;;;;17.13;74.36;101261.91;5000846;28;20021;-93
2023/07/19 06:05:20;;;;;;;6.95;4.35;;;;;;;17.20;74.41;101270.34;5004934;28;20487;-94
2023/07/19 06:07:46;;;;;;;7.65;4.53;;;;;;;17.27;74.39;101269.97;4994705;28;20056;-93
2023/07/19 06:10:13;;;;;;;8.18;4.18;;;;;;;17.31;74.35;101269.84;4985999;28;20028;-94
2023/07/19 06:12:45;;;;;;;6.07;3.90;;;;;;;17.33;73.61;101260.94;4998621;28;20033;-94
2023/07/19 06:15:14;;;;;;;5.88;4.18;;;;;;;17.36;73.12;101263.44;5005447;28;20022;-93
2023/07/19 06:17:46;;;;;;;6.72;3.88;;;;;;;17.39;73.27;101260.66;4992339;28;20053;-92
2023/07/19 06:20:13;;;;;;;8.82;4.00;;;;;;;17.44;73.33;101266.53;4999825;28;20448;-94
2023/07/19 06:22:41;;;;;;;6.22;3.70;;;;;;;17.48;73.46;101258.50;4999671;28;20572;-93
2023/07/19 06:25:07;;;;;;;5.88;3.72;;;;;;;17.55;71.28;101262.56;4998716;28;20030;-93
2023/07/19 06:27:32;;;;;;;6.28;3.72;;;;;;;17.64;71.06;101262.09;5008840;28;20037;-94
2023/07/19 06:29:58;;;;;;;6.20;3.63;;;;;;;17.72;71.37;101259.94;4995650;28;20022;-92
2023/07/19 06:32:27;;;;;;;4.95;3.42;;;;;;;17.81;71.20;101257.78;4998114;28;20029;-93
2023/07/19 06:34:52;;;;;;;8.93;3.67;;;;;;;17.88;70.55;101253.91;5000467;28;20517;-92
2023/07/19 06:37:17;;;;;;;5.47;3.78;;;;;;;17.95;71.03;101254.47;5003637;28;20034;-91
2023/07/19 06:39:50;;;;;;;8.80;3.92;;;;;;;18.00;69.56;101247.22;4985721;28;20491;-93
2023/07/19 06:42:15;;;;;;;11.10;3.67;;;;;;;18.03;70.04;101253.19;5001026;28;20061;-92
2023/07/19 06:44:40;;;;;;;5.90;3.85;;;;;;;18.05;69.13;101256.59;4985800;28;20387;-92
2023/07/19 06:47:06;;;;;;;7.10;3.92;;;;;;;18.10;68.87;101258.16;5003309;28;20495;-90
2023/07/19 06:49:31;;;;;;;6.57;3.88;;;;;;;18.12;69.03;101267.66;5002825;28;20034;-91
2023/07/19 06:52:04;;;;;;;6.07;3.65;;;;;;;18.17;68.78;101263.03;4983504;28;20044;-95
2023/07/19 06:54:32;;;;;;;8.57;3.17;;;;;;;18.21;67.89;101266.34;4984851;28;20501;-94
2023/07/19 06:56:57;;;;;;;7.50;3.08;;;;;;;18.29;67.60;101263.31;4986001;28;20105;-94
2023/07/19 06:59:22;;;;;;;5.13;2.95;;;;;;;18.37;66.58;101265.53;4982392;28;20125;-92
2023/07/19 07:01:48;;;;;;;6.05;3.20;;;;;;;18.46;66.39;101265.06;4984184;28;20029;-94
2023/07/19 07:04:13;;;;;;;5.00;2.97;;;;;;;18.55;65.55;101269.84;5004818;28;20030;-91
2023/07/19 07:06:39;;;;;;;7.15;3.28;;;;;;;18.65;65.11;101264.94;4986260;28;20121;-91
2023/07/19 07:09:04;;;;;;;6.35;2.75;;;;;;;18.75;65.28;101260.88;5001998;28;20051;-92
2023/07/19 07:11:29;;;;;;;4.90;2.90;;;;;;;18.84;64.50;101269.25;5004576;28;20111;-91
2023/07/19 07:14:10;;;;;;;5.97;2.60;;;;;;;18.97;65.42;101259.75;5007726;28;20026;-96
2023/07/19 07:16:40;;;;;;;7.47;2.70;;;;;;;19.07;63.88;101268.00;4999786;28;20029;-95
2023/07/19 07:19:17;;;;;;;;;;;;;;;;;;;;;
2023/07/19 07:21:45;;;;;;;7.65;2.75;;;;;;;19.21;61.82;101260.19;5011192;28;20527;-92
2023/07/19 07:24:10;;;;;;;5.55;2.60;;;;;;;19.26;62.82;101266.06;5004506;28;20018;-91
2023/07/19 07:26:36;;;;;;;8.55;2.30;;;;;;;19.28;61.75;101262.50;5009946;28;20105;-93
2023/07/19 07:29:01;;;;;;;5.60;2.47;;;;;;;19.32;61.88;101264.88;5008041;28;20033;-92
2023/07/19 07:31:29;;;;;;;3.65;2.25;;;;;;;19.36;62.38;101262.91;4990325;28;20080;-95
2023/07/19 07:33:55;;;;;;;5.68;2.65;;;;;;;19.39;62.51;101263.56;5006626;28;20057;-92
2023/07/19 07:36:22;;;;;;;4.85;2.58;;;;;;;19.45;61.91;101258.88;5006536;28;20026;-93
2023/07/19 07:38:48;;;;;;;7.32;2.63;;;;;;;19.51;62.42;101259.38;4988740;28;20038;-93
2023/07/19 07:41:13;;;;;;;8.15;2.88;;;;;;;19.55;62.48;101254.81;4986785;28;20369;-94
2023/07/19 07:43:38;;;;;;;6.75;2.40;;;;;;;19.58;61.60;101261.69;5002989;28;20045;-94
2023/07/19 07:46:36;;;;;;;6.30;2.25;;;;;;;19.63;62.80;101251.72;5006069;28;20182;-95
2023/07/19 07:49:01;;;;;;;8.07;2.50;;;;;;;19.63;61.76;101246.44;5003140;28;20033;-94
2023/07/19 07:51:29;;;;;;;4.45;2.63;;;;;;;19.66;59.95;101246.25;5003423;28;20032;-92
2023/07/19 07:53:57;;;;;;;5.30;2.70;;;;;;;19.67;61.30;101247.94;5004606;28;20029;-96
2023/07/19 07:56:25;;;;;;;6.15;2.35;;;;;;;19.68;60.90;101247.00;4994288;28;20030;-92
2023/07/19 07:58:51;;;;;;;6.13;2.47;;;;;;;19.71;60.64;101252.13;5004137;28;20037;-93
2023/07/19 08:01:21;;;;;;;5.25;2.15;;;;;;;19.72;59.92;101251.19;4985849;28;20041;-94
2023/07/19 08:03:52;;;;;;;7.05;2.47;;;;;;;19.75;60.44;101245.72;4986786;28;20045;-96
2023/07/19 08:06:19;;;;;;;4.10;2.25;;;;;;;19.77;59.61;101253.53;4985961;28;20030;-93
2023/07/19 08:08:44;;;;;;;6.10;2.67;;;;;;;19.79;59.87;101247.25;4985255;28;20071;-94
2023/07/19 08:11:10;;;;;;;6.07;2.40;;;;;;;19.83;60.18;101243.47;4985133;28;20479;-94
2023/07/19 08:13:35;;;;;;;8.07;2.70;;;;;;;19.88;60.68;101240.63;4985235;28;20479;-94
2023/07/19 08:16:06;;;;;;;5.80;2.28;;;;;;;19.93;61.19;101240.34;4985691;28;20523;-96
2023/07/19 08:18:31;;;;;;;5.20;2.33;;;;;;;19.95;60.51;101236.66;4988279;28;20061;-94
2023/07/19 08:20:56;;;;;;;5.47;1.92;;;;;;;19.98;59.07;101240.94;4983841;28;20475;-92
2023/07/19 08:23:24;;;;;;;4.80;1.90;;;;;;;19.99;59.24;101237.31;4984620;28;20029;-94
2023/07/19 08:25:57;;;;;;;6.55;2.28;;;;;;;20.03;59.85;101236.19;4984660;28;20399;-95
2023/07/19 08:28:26;;;;;;;7.82;2.30;;;;;;;20.07;58.22;101235.09;4986714;28;20026;-92
2023/07/19 08:30:52;;;;;;;6.18;1.88;;;;;;;20.17;58.34;101233.59;4980971;28;20032;-95
2023/07/19 08:33:29;;;;;;;3.95;1.63;;;;;;;20.29;58.05;101229.34;4987942;28;20037;-95
2023/07/19 08:36:06;;;;;;;4.20;1.80;;;;;;;20.41;58.43;101227.75;4995461;28;20032;-96
2023/07/19 08:39:05;;;;;;;;;;;;;;;;;;;;;
2023/07/19 08:41:39;;;;;;;4.95;1.60;;;;;;;20.60;55.67;101234.56;5013249;23;20532;-94
2023/07/19 08:44:05;;;;;;;5.47;1.88;;;;;;;20.68;56.02;101224.34;5002650;28;20233;-92
2023/07/19 08:46:35;;;;;;;5.25;2.20;;;;;;;20.75;57.13;101233.63;4985857;28;20385;-95
2023/07/19 08:49:55;;;;;;;;;;;;;;;;;;;;;
2023/07/19 08:52:21;;;;;;;4.57;1.80;;;;;;;20.82;55.55;101231.44;5031799;23;20068;-90
2023/07/19 08:54:56;;;;;;;4.47;1.60;;;;;;;20.91;54.86;101230.03;4993763;28;20535;-93
2023/07/19 08:57:56;;;;;;;7.85;1.70;;;;;;;20.97;56.32;101232.28;4999458;28;20030;-94
2023/07/19 09:00:34;;;;;;;;;;;;;;;;;;;;;
2023/07/19 09:03:10;;;;;;;7.10;1.70;;;;;;;20.93;54.55;101241.34;4978375;28;20030;-95
2023/07/19 09:05:40;;;;;;;3.63;1.77;;;;;;;20.93;53.48;101238.72;4979116;28;20018;-95
2023/07/19 09:08:14;;;;;;;3.97;1.52;;;;;;;20.85;54.68;101240.97;4980158;28;20041;-95
2023/07/19 09:10:53;;;;;;;4.82;1.45;;;;;;;20.80;54.94;101240.44;4963668;28;20542;-96
2023/07/19 09:14:05;;;;;;;5.63;1.90;;;;;;;20.79;56.08;101242.22;4963834;28;20038;-95
2023/07/19 09:16:42;;;;;;;5.13;1.70;;;;;;;20.76;56.31;101237.97;4967072;28;20468;-95
2023/07/19 09:19:38;;;;;;;;;;;;;;;;;;;;;
2023/07/19 09:22:07;;;;;;;4.55;1.80;;;;;;;20.89;56.77;101245.13;4964967;28;20031;-94
2023/07/19 09:24:44;;;;;;;;;;;;;;;;;;;;;
2023/07/19 09:27:34;;;;;;;;;;;;;;;;;;;;;
2023/07/19 09:30:13;;;;;;;4.72;1.90;;;;;;;21.02;56.29;101234.63;4963205;28;20035;-96
2023/07/19 09:33:14;;;;;;;;;;;;;;;;;;;;;
2023/07/19 09:36:22;;;;;;;;;;;;;;;;;;;;;
2023/07/19 09:38:52;;;;;;;18.42;2.60;;;;;;;21.13;56.41;101244.53;4962117;28;20034;-95
2023/07/19 09:41:29;;;;;;;;;;;;;;;;;;;;;
2023/07/19 09:44:10;;;;;;;;;;;;;;;;;;;;;
2023/07/19 09:46:54;;;;;;;;;;;;;;;;;;;;;
2023/07/19 09:49:42;;;;;;;5.18;1.88;;;;;;;21.66;56.63;101237.56;4942938;28;19924;-94
2023/07/19 09:52:27;;;;;;;7.13;2.10;;;;;;;21.73;56.90;101230.06;4963291;28;20105;-95
2023/07/19 09:55:01;;;;;;;4.93;1.70;;;;;;;21.86;57.02;101227.44;4967000;28;20085;-95
2023/07/19 09:57:55;;;;;;;;;;;;;;;;;;;;;
2023/07/19 10:01:26;;;;;;;7.95;2.03;;;;;;;21.94;56.40;101234.88;5019745;23;20080;-95
2023/07/19 10:03:51;;;;;;;3.40;1.60;;;;;;;21.92;56.20;101232.28;4964995;28;20438;-94
2023/07/19 10:06:28;;;;;;;11.13;2.20;;;;;;;21.89;56.92;101235.16;4958080;28;20018;-94
2023/07/19 10:09:52;;;;;;;6.78;1.90;;;;;;;21.86;56.58;101238.03;4974075;28;20058;-93
2023/07/19 10:12:41;;;;;;;;;;;;;;;;;;;;;
2023/07/19 10:15:22;;;;;;;6.35;1.88;;;;;;;21.79;57.05;101231.44;4978277;28;20121;-94
2023/07/19 10:17:50;;;;;;;9.75;2.20;;;;;;;21.90;57.77;101222.78;4960142;28;20050;-88
2023/07/19 10:20:15;;;;;;;5.40;1.98;;;;;;;21.96;56.91;101223.19;4966770;28;20032;-95
2023/07/19 10:22:58;;;;;;;5.22;1.98;;;;;;;21.94;56.89;101227.75;4949554;28;20073;-95
2023/07/19 10:25:29;;;;;;;5.60;1.95;;;;;;;21.89;57.34;101229.03;4967483;28;20038;-92
2023/07/19 10:27:56;;;;;;;3.97;1.83;;;;;;;21.85;56.26;101238.97;4968882;28;20495;-92
2023/07/19 10:30:21;;;;;;;5.80;1.90;;;;;;;21.83;56.40;101232.94;4967587;28;20388;-91
2023/07/19 10:32:50;;;;;;;9.77;1.92;;;;;;;21.83;56.66;101235.59;4963176;28;20045;-92
2023/07/19 10:35:31;;;;;;;6.07;1.75;;;;;;;21.88;56.65;101235.25;4961058;28;20498;-96
2023/07/19 10:37:59;;;;;;;4.25;1.50;;;;;;;21.82;55.51;101236.53;4960477;28;20125;-94
2023/07/19 10:40:24;;;;;;;4.38;1.63;;;;;;;21.83;56.30;101232.94;4961832;28;20030;-92
2023/07/19 10:42:52;;;;;;;6.55;1.40;;;;;;;21.75;55.28;101238.75;4962852;28;20373;-93
2023/07/19 10:45:17;;;;;;;5.82;1.40;;;;;;;21.76;54.82;101234.28;4949029;28;20027;-92
2023/07/19 10:47:43;;;;;;;3.70;1.30;;;;;;;21.79;54.22;101234.09;4973150;28;20018;-92
2023/07/19 10:50:09;;;;;;;2.88;1.20;;;;;;;21.81;52.69;101234.84;4970610;28;20480;-94
2023/07/19 10:52:34;;;;;;;4.22;1.40;;;;;;;21.83;52.73;101225.00;4966812;28;20257;-94
2023/07/19 10:55:04;;;;;;;3.80;1.20;;;;;;;21.91;52.92;101220.00;4970744;28;20035;-93
2023/07/19 10:57:40;;;;;;;3.03;1.38;;;;;;;21.97;52.21;101224.91;4968190;28;20058;-93
2023/07/19 11:00:12;;;;;;;2.85;1.35;;;;;;;22.02;52.36;101223.75;4953191;28;20038;-93
2023/07/19 11:02:41;;;;;;;4.95;1.45;;;;;;;22.07;51.70;101224.25;4950151;28;20097;-93
2023/07/19 11:05:08;;;;;;;4.88;1.40;;;;;;;22.13;51.51;101229.16;4967063;28;20031;-91
2023/07/19 11:07:34;;;;;;;4.63;1.30;;;;;;;22.16;51.67;101225.44;4950889;28;20034;-92
2023/07/19 11:10:01;;;;;;;3.05;1.27;;;;;;;22.11;51.75;101231.03;4964305;28;20031;-92
2023/07/19 11:12:27;;;;;;;3.80;1.30;;;;;;;22.09;50.93;101227.66;4965128;28;20039;-92
2023/07/19 11:15:01;;;;;;;2.30;1.17;;;;;;;22.19;51.61;101223.44;4965346;28;20077;-92
2023/07/19 11:17:34;;;;;;;5.68;1.10;;;;;;;22.27;52.05;101226.38;4965023;28;20034;-94
2023/07/19 11:19:59;;;;;;;3.90;1.08;;;;;;;22.28;50.63;101219.28;4946829;28;20035;-93
2023/07/19 11:22:27;;;;;;;5.60;1.20;;;;;;;22.32;51.48;101214.63;4963560;28;20037;-93
2023/07/19 11:24:53;;;;;;;2.88;1.20;;;;;;;22.35;51.72;101222.38;4964445;28;21236;-94
2023/07/19 11:27:36;;;;;;;3.70;1.10;;;;;;;22.34;51.83;101226.81;4946631;28;20054;-93
2023/07/19 11:30:02;;;;;;;3.67;0.98;;;;;;;22.35;51.82;101227.66;4965587;28;20384;-91
2023/07/19 11:32:28;;;;;;;3.15;1.10;;;;;;;22.33;50.55;101221.63;4962946;28;20042;-94
2023/07/19 11:34:56;;;;;;;6.93;1.30;;;;;;;22.25;50.74;101225.63;4962365;28;20026;-91
2023/07/19 11:37:23;;;;;;;3.75;1.35;;;;;;;22.21;51.31;101220.66;4964418;28;20026;-91
2023/07/19 11:39:50;;;;;;;4.18;1.13;;;;;;;22.14;50.37;101220.25;4949396;28;20033;-90
2023/07/19 11:42:40;;;;;;;6.18;1.65;;;;;;;22.07;51.93;101224.25;4966756;28;20491;-89
2023/07/19 11:45:11;;;;;;;3.47;1.23;;;;;;;21.98;51.37;101220.44;4963952;28;20034;-92
2023/07/19 11:47:37;;;;;;;2.95;1.27;;;;;;;21.97;51.95;101216.09;4962941;28;20039;-91
2023/07/19 11:50:03;;;;;;;2.70;1.10;;;;;;;22.01;52.47;101220.22;4967836;28;20018;-90
2023/07/19 11:52:30;;;;;;;6.40;1.40;;;;;;;22.05;53.33;101210.25;4969643;28;20027;-94
2023/07/19 11:55:05;;;;;;;5.78;1.48;;;;;;;22.07;53.67;101221.59;4951922;28;20117;-94